Time;durP1;ratioP1;P1;durP2;ratioP2;P2;SDS_P1;SDS_P2;PMS_P1;PMS_P2;Temp;Humidity;BMP_temperature;BMP_pressure;BME280_temperature;BME280_humidity;BME280_pressure;Samples;Min_cycle;Max_cycle;Signal;HPM_P1;HPM_P2
2022/12/24 00:02:08;;;;;;;0.32;0.32;;;7.80;99.90;;;;;;5028131;28;20041;-68
2022/12/24 00:04:33;;;;;;;0.20;0.20;;;7.80;99.90;;;;;;5027452;28;20045;-68
2022/12/24 00:06:59;;;;;;;0.20;0.20;;;7.80;99.90;;;;;;5027947;28;20037;-68
2022/12/24 00:09:24;;;;;;;2.38;1.70;;;7.80;99.90;;;;;;5028337;28;20477;-68
2022/12/24 00:11:50;;;;;;;0.10;0.10;;;7.80;99.90;;;;;;5028644;28;20071;-68
2022/12/24 00:14:16;;;;;;;0.73;0.68;;;7.80;99.90;;;;;;5026121;28;20049;-68
2022/12/24 00:16:41;;;;;;;0.47;0.45;;;7.80;99.90;;;;;;5027631;28;20053;-68
2022/12/24 00:19:07;;;;;;;0.20;0.20;;;7.80;99.90;;;;;;5028541;28;20033;-68
2022/12/24 00:21:32;;;;;;;0.65;0.60;;;7.80;99.90;;;;;;5027366;28;20053;-69
2022/12/24 00:23:58;;;;;;;1.10;1.00;;;7.80;99.90;;;;;;5023940;28;20045;-68
2022/12/24 00:26:23;;;;;;;0.15;0.15;;;7.80;99.90;;;;;;5026251;28;20038;-68
2022/12/24 00:28:49;;;;;;;0.00;0.00;;;7.80;99.90;;;;;;5026413;28;20142;-68
2022/12/24 00:31:17;;;;;;;0.73;0.73;;;7.80;99.90;;;;;;5028276;28;20045;-68
2022/12/24 00:33:44;;;;;;;1.23;0.77;;;7.70;99.90;;;;;;5027813;28;20073;-69
2022/12/24 00:36:10;;;;;;;0.22;0.22;;;7.80;99.90;;;;;;5026710;28;20128;-68
2022/12/24 00:38:36;;;;;;;0.30;0.30;;;7.80;99.90;;;;;;5028731;28;20120;-68
2022/12/24 00:41:04;;;;;;;15.55;1.50;;;7.80;99.90;;;;;;5025435;28;20397;-68
2022/12/24 00:43:30;;;;;;;2.75;1.45;;;7.80;99.90;;;;;;5025111;28;20123;-68
2022/12/24 00:45:56;;;;;;;0.40;0.40;;;7.80;99.90;;;;;;5027559;28;20044;-67
2022/12/24 00:48:23;;;;;;;0.40;0.40;;;7.80;99.90;;;;;;5028180;28;20049;-68
2022/12/24 00:50:49;;;;;;;1.50;1.48;;;7.80;99.90;;;;;;5027303;28;20120;-68
2022/12/24 00:53:16;;;;;;;0.40;0.40;;;7.80;99.90;;;;;;5026869;28;20449;-68
2022/12/24 00:55:41;;;;;;;1.02;0.63;;;7.70;99.90;;;;;;5026972;28;20049;-68
2022/12/24 00:58:07;;;;;;;0.20;0.20;;;7.80;99.90;;;;;;5028721;28;20045;-68
2022/12/24 01:00:33;;;;;;;1.05;1.05;;;7.80;99.90;;;;;;5022621;28;20715;-68
2022/12/24 01:02:58;;;;;;;0.40;0.40;;;7.80;99.90;;;;;;5022919;28;20069;-68
2022/12/24 01:05:24;;;;;;;0.93;0.93;;;7.70;99.90;;;;;;5028547;28;20037;-68
2022/12/24 01:07:49;;;;;;;0.70;0.70;;;7.80;99.90;;;;;;5028152;28;20049;-68
2022/12/24 01:10:19;;;;;;;1.20;1.00;;;7.80;99.90;;;;;;5021887;28;20104;-68
2022/12/24 01:12:45;;;;;;;0.10;0.10;;;7.80;99.90;;;;;;5023385;28;20052;-68
2022/12/24 01:15:13;;;;;;;1.00;1.00;;;7.70;99.90;;;;;;5026764;28;20038;-68
2022/12/24 01:17:39;;;;;;;0.20;0.20;;;7.70;99.90;;;;;;5026559;28;20120;-68
2022/12/24 01:20:07;;;;;;;0.20;0.20;;;7.80;99.90;;;;;;5027992;28;20533;-68
2022/12/24 01:22:33;;;;;;;1.55;0.63;;;7.80;99.90;;;;;;5027067;28;20056;-68
2022/12/24 01:24:59;;;;;;;0.03;0.03;;;7.80;99.90;;;;;;5026821;28;20033;-68
2022/12/24 01:27:24;;;;;;;1.27;1.25;;;7.70;99.90;;;;;;5025436;28;20056;-69
2022/12/24 01:29:50;;;;;;;0.50;0.50;;;7.70;99.90;;;;;;5028166;28;20041;-68
2022/12/24 01:32:16;;;;;;;1.55;0.70;;;7.80;99.90;;;;;;5031377;28;20171;-68
2022/12/24 01:34:41;;;;;;;0.47;0.47;;;7.80;99.90;;;;;;5030243;28;20049;-68
2022/12/24 01:37:07;;;;;;;1.33;1.17;;;7.70;99.90;;;;;;5046253;28;20462;-68
2022/12/24 01:39:33;;;;;;;3.03;0.85;;;7.80;99.90;;;;;;5029658;28;20385;-68
2022/12/24 01:44:50;;;;;;;0.15;0.15;;;7.70;99.90;;;;;;5025096;28;20100;-68
2022/12/24 01:47:24;;;;;;;2.60;0.73;;;7.80;99.90;;;;;;5030762;28;20085;-68
2022/12/24 01:50:03;;;;;;;0.95;0.90;;;7.70;99.90;;;;;;5030884;28;20057;-68
2022/12/24 01:52:33;;;;;;;0.35;0.35;;;7.80;99.90;;;;;;5029669;28;20473;-68
2022/12/24 01:55:12;;;;;;;0.10;0.10;;;7.80;99.90;;;;;;5029940;28;20045;-68
2022/12/24 01:57:44;;;;;;;0.30;0.30;;;7.70;99.90;;;;;;5030105;28;20037;-68
2022/12/24 02:00:12;;;;;;;1.35;0.85;;;7.70;99.90;;;;;;5030070;28;20068;-68
2022/12/24 02:02:40;;;;;;;1.08;0.65;;;7.80;99.90;;;;;;5031161;28;20706;-68
2022/12/24 02:05:44;;;;;;;0.47;0.47;;;7.70;99.90;;;;;;5030750;28;20045;-68
2022/12/24 02:08:10;;;;;;;;;;;7.80;99.90;;;;;;5025824;28;20050;-68
2022/12/24 02:10:37;;;;;;;0.10;0.10;;;7.80;99.90;;;;;;5027412;28;20354;-68
2022/12/24 02:13:04;;;;;;;0.20;0.20;;;7.80;99.90;;;;;;5027875;28;20064;-68
2022/12/24 02:15:50;;;;;;;0.32;0.32;;;7.80;99.90;;;;;;5024910;28;20060;-68
2022/12/24 02:18:30;;;;;;;1.85;0.77;;;7.80;99.90;;;;;;5030651;28;20042;-68
2022/12/24 02:21:05;;;;;;;0.10;0.10;;;7.80;99.90;;;;;;5022664;28;20058;-68
2022/12/24 02:24:01;;;;;;;0.10;0.10;;;7.80;99.90;;;;;;5026419;28;20045;-68
2022/12/24 02:26:38;;;;;;;0.40;0.40;;;7.90;99.90;;;;;;5020124;28;20583;-68
2022/12/24 02:29:25;;;;;;;0.20;0.20;;;7.90;99.90;;;;;;5030154;28;20060;-69
2022/12/24 02:32:03;;;;;;;0.30;0.30;;;7.90;99.90;;;;;;5027560;28;20048;-68
2022/12/24 02:34:34;;;;;;;0.65;0.65;;;8.00;99.90;;;;;;5028128;28;20553;-68
2022/12/24 02:37:31;;;;;;;0.40;0.40;;;8.10;99.90;;;;;;5028649;28;20077;-68
2022/12/24 02:40:15;;;;;;;0.32;0.32;;;8.10;99.90;;;;;;5030945;28;20135;-68
2022/12/24 02:42:44;;;;;;;1.70;1.48;;;8.10;99.90;;;;;;5028160;28;20053;-68
2022/12/24 02:45:19;;;;;;;0.20;0.20;;;8.20;99.90;;;;;;5027942;28;20061;-68
2022/12/24 02:47:46;;;;;;;1.25;0.75;;;8.20;99.90;;;;;;5030284;28;20061;-68
2022/12/24 02:50:15;;;;;;;0.20;0.20;;;8.20;99.90;;;;;;5027974;28;20551;-68
2022/12/24 02:52:43;;;;;;;0.20;0.20;;;8.30;99.90;;;;;;5028961;28;20319;-67
2022/12/24 02:55:27;;;;;;;0.40;0.40;;;8.20;99.90;;;;;;5028379;28;20371;-68
2022/12/24 02:58:28;;;;;;;0.10;0.10;;;8.20;99.90;;;;;;5028922;28;20080;-68
2022/12/24 03:00:54;;;;;;;0.15;0.15;;;8.20;99.90;;;;;;5030449;28;20042;-68
2022/12/24 03:03:25;;;;;;;0.10;0.10;;;8.20;99.90;;;;;;5025688;28;20050;-68
2022/12/24 03:06:07;;;;;;;0.17;0.17;;;8.20;99.90;;;;;;5028691;28;20046;-68
2022/12/24 03:08:47;;;;;;;0.30;0.30;;;8.20;99.90;;;;;;5028257;28;20536;-68
2022/12/24 03:11:16;;;;;;;0.20;0.20;;;8.20;99.90;;;;;;5029063;28;20091;-68
2022/12/24 03:13:43;;;;;;;0.52;0.52;;;8.30;99.90;;;;;;5028330;28;20449;-68
2022/12/24 03:16:13;;;;;;;0.32;0.32;;;8.40;99.90;;;;;;5027083;28;20045;-68
2022/12/24 03:18:43;;;;;;;0.20;0.20;;;8.40;99.90;;;;;;5028171;28;20501;-68
2022/12/24 03:21:23;;;;;;;0.00;0.00;;;8.40;99.90;;;;;;5030343;28;20049;-68
2022/12/24 03:23:49;;;;;;;0.10;0.10;;;8.50;99.90;;;;;;5025707;28;20440;-68
2022/12/24 03:26:16;;;;;;;0.10;0.10;;;8.40;99.90;;;;;;5029744;28;20041;-68
2022/12/24 03:28:43;;;;;;;0.10;0.10;;;8.50;99.90;;;;;;5029690;28;20457;-68
2022/12/24 03:31:09;;;;;;;0.10;0.10;;;8.50;99.90;;;;;;5029212;28;20486;-68
2022/12/24 03:33:35;;;;;;;0.00;0.00;;;8.50;99.90;;;;;;5025188;28;20054;-68
2022/12/24 03:36:02;;;;;;;3.40;0.93;;;8.50;99.90;;;;;;5026315;28;20041;-68
2022/12/24 03:38:28;;;;;;;0.10;0.10;;;8.50;99.90;;;;;;5028656;28;20497;-68
2022/12/24 03:40:53;;;;;;;0.10;0.10;;;8.40;99.90;;;;;;5029459;28;20034;-68
2022/12/24 03:43:19;;;;;;;0.28;0.28;;;8.50;99.90;;;;;;5024305;28;20096;-68
2022/12/24 03:45:44;;;;;;;0.10;0.10;;;8.50;99.90;;;;;;5027232;28;20037;-68
2022/12/24 03:48:10;;;;;;;0.10;0.10;;;8.40;99.90;;;;;;5029582;28;20057;-68
2022/12/24 03:50:36;;;;;;;0.10;0.10;;;8.40;99.90;;;;;;5027161;28;20083;-68
2022/12/24 03:53:01;;;;;;;0.30;0.30;;;8.40;99.90;;;;;;5028658;28;20042;-68
2022/12/24 03:55:27;;;;;;;0.20;0.20;;;8.40;99.90;;;;;;5026544;28;20056;-68
2022/12/24 03:57:53;;;;;;;0.10;0.10;;;8.40;99.90;;;;;;5028352;28;20144;-68
2022/12/24 04:00:19;;;;;;;1.25;1.15;;;8.30;99.90;;;;;;5028758;28;20060;-68
2022/12/24 04:02:44;;;;;;;0.00;0.00;;;8.20;99.90;;;;;;5028380;28;20096;-68
2022/12/24 04:05:16;;;;;;;0.10;0.10;;;8.20;99.90;;;;;;5024778;28;20069;-68
2022/12/24 04:07:42;;;;;;;1.17;0.65;;;8.30;99.90;;;;;;5028373;28;20049;-68
2022/12/24 04:10:08;;;;;;;0.05;0.05;;;8.30;99.90;;;;;;5029408;28;20037;-68
2022/12/24 04:12:35;;;;;;;0.10;0.10;;;8.30;99.90;;;;;;5027341;28;20054;-68
2022/12/24 04:15:00;;;;;;;1.55;1.17;;;8.30;99.90;;;;;;5027125;28;20037;-68
2022/12/24 04:17:26;;;;;;;0.35;0.35;;;8.30;99.90;;;;;;5028965;28;20049;-68
2022/12/24 04:19:52;;;;;;;0.10;0.10;;;8.30;99.90;;;;;;5026670;28;20544;-68
2022/12/24 04:22:17;;;;;;;0.03;0.03;;;8.30;99.90;;;;;;5026511;28;20073;-68
2022/12/24 04:24:43;;;;;;;0.00;0.00;;;8.30;99.90;;;;;;5022910;28;20057;-68
2022/12/24 04:27:08;;;;;;;0.10;0.10;;;8.30;99.90;;;;;;5026177;28;20492;-67
2022/12/24 04:29:34;;;;;;;0.17;0.17;;;8.30;99.90;;;;;;5027109;28;20049;-68
2022/12/24 04:31:59;;;;;;;0.20;0.20;;;8.30;99.90;;;;;;5027570;28;20042;-68
2022/12/24 04:34:26;;;;;;;0.32;0.32;;;8.30;99.90;;;;;;5024562;28;20393;-68
2022/12/24 04:36:51;;;;;;;0.00;0.00;;;8.20;99.90;;;;;;5022951;28;20108;-68
2022/12/24 04:39:17;;;;;;;0.00;0.00;;;8.30;99.90;;;;;;5022476;28;20053;-67
2022/12/24 04:41:42;;;;;;;0.10;0.10;;;8.30;99.90;;;;;;5026957;28;20055;-68
2022/12/24 04:44:08;;;;;;;0.28;0.28;;;8.30;99.90;;;;;;5026807;28;20039;-68
2022/12/24 04:46:34;;;;;;;6.03;2.90;;;8.40;99.90;;;;;;5020216;28;20107;-67
2022/12/24 04:49:00;;;;;;;0.00;0.00;;;8.30;99.90;;;;;;5006806;28;20042;-67
2022/12/24 04:51:27;;;;;;;0.10;0.10;;;8.40;99.90;;;;;;5008647;28;20052;-67
2022/12/24 04:53:54;;;;;;;0.10;0.10;;;8.40;99.90;;;;;;4988624;28;20061;-68
2022/12/24 04:56:22;;;;;;;0.85;0.85;;;8.40;99.90;;;;;;5008666;28;20050;-68
2022/12/24 04:58:48;;;;;;;0.15;0.15;;;8.50;99.90;;;;;;5007288;28;20045;-68
2022/12/24 05:01:23;;;;;;;1.00;1.00;;;8.50;99.90;;;;;;4990797;28;20085;-68
2022/12/24 05:03:49;;;;;;;0.95;0.95;;;8.50;99.90;;;;;;4989911;28;20045;-68
2022/12/24 05:06:19;;;;;;;0.63;0.63;;;8.50;99.90;;;;;;4994003;28;20132;-68
2022/12/24 05:08:44;;;;;;;0.00;0.00;;;8.50;99.90;;;;;;5013921;28;20061;-68
2022/12/24 05:11:13;;;;;;;0.28;0.28;;;8.60;99.90;;;;;;4998055;28;20045;-68
2022/12/24 05:13:40;;;;;;;0.10;0.10;;;8.60;99.90;;;;;;5013710;28;20038;-68
2022/12/24 05:16:06;;;;;;;2.17;1.58;;;8.60;99.90;;;;;;5013468;28;20102;-68
2022/12/24 05:18:32;;;;;;;0.47;0.47;;;8.60;99.90;;;;;;4996904;28;20052;-68
2022/12/24 05:20:57;;;;;;;1.75;0.65;;;8.60;99.90;;;;;;4995792;28;20038;-68
2022/12/24 05:26:23;;;;;;;0.63;0.63;;;8.60;99.90;;;;;;5014789;28;20081;-68
2022/12/24 05:28:57;;;;;;;1.13;0.50;;;8.60;99.90;;;;;;5014222;28;20046;-68
2022/12/24 05:31:25;;;;;;;2.72;2.03;;;8.50;99.90;;;;;;5012261;28;20045;-68
2022/12/24 05:33:53;;;;;;;0.30;0.30;;;8.60;99.90;;;;;;5014210;28;20573;-67
2022/12/24 05:36:19;;;;;;;0.10;0.10;;;8.60;99.90;;;;;;4995474;28;20166;-68
2022/12/24 05:38:44;;;;;;;3.85;3.03;;;8.60;99.90;;;;;;5013968;28;20053;-68
2022/12/24 05:41:10;;;;;;;0.40;0.40;;;8.60;99.90;;;;;;5013960;28;20065;-68
2022/12/24 05:43:36;;;;;;;1.65;0.80;;;8.50;99.90;;;;;;5014732;28;20058;-67
2022/12/24 05:46:05;;;;;;;0.10;0.10;;;8.50;99.90;;;;;;4994771;28;20041;-68
2022/12/24 05:48:30;;;;;;;2.83;1.65;;;8.50;99.90;;;;;;4993557;28;20682;-68
2022/12/24 05:50:56;;;;;;;0.00;0.00;;;8.50;99.90;;;;;;5013274;28;20038;-67
2022/12/24 05:53:23;;;;;;;0.05;0.05;;;8.50;99.90;;;;;;4996225;28;20069;-68
2022/12/24 05:55:48;;;;;;;0.10;0.10;;;8.50;99.90;;;;;;5013675;28;20143;-68
2022/12/24 05:58:14;;;;;;;0.30;0.30;;;8.50;99.90;;;;;;5014356;28;20053;-67
2022/12/24 06:00:40;;;;;;;1.23;1.17;;;8.40;99.90;;;;;;4993680;28;20043;-67
2022/12/24 06:03:06;;;;;;;1.20;1.20;;;8.40;99.90;;;;;;4995197;28;20127;-68
2022/12/24 06:05:31;;;;;;;0.57;0.57;;;8.40;99.90;;;;;;5013215;28;20444;-67
2022/12/24 06:07:57;;;;;;;0.57;0.57;;;8.40;99.90;;;;;;4992697;28;20077;-68
2022/12/24 06:10:22;;;;;;;0.47;0.43;;;8.30;99.90;;;;;;5010759;28;20041;-68
2022/12/24 06:12:48;;;;;;;0.35;0.35;;;8.30;99.90;;;;;;5013838;28;20049;-68
2022/12/24 06:15:14;;;;;;;0.65;0.43;;;8.20;99.90;;;;;;4995403;28;20050;-68
2022/12/24 06:17:40;;;;;;;1.35;1.25;;;8.20;99.90;;;;;;4992337;28;20046;-68
2022/12/24 06:20:06;;;;;;;0.65;0.47;;;8.10;99.90;;;;;;4989937;28;20133;-68
2022/12/24 06:22:31;;;;;;;1.25;1.00;;;8.10;99.90;;;;;;5010946;28;20041;-68
2022/12/24 06:24:57;;;;;;;0.10;0.10;;;8.10;99.90;;;;;;4991383;28;20466;-68
2022/12/24 06:27:23;;;;;;;0.15;0.15;;;8.10;99.90;;;;;;5010053;28;20049;-68
2022/12/24 06:29:48;;;;;;;0.20;0.20;;;8.10;99.90;;;;;;4992353;28;20062;-68
2022/12/24 06:32:14;;;;;;;0.28;0.28;;;8.00;99.90;;;;;;5011487;28;20470;-67
2022/12/24 06:34:39;;;;;;;0.10;0.10;;;8.00;99.90;;;;;;5008974;28;20042;-67
2022/12/24 06:37:05;;;;;;;0.20;0.20;;;8.00;99.90;;;;;;5010826;28;20561;-67
2022/12/24 06:39:31;;;;;;;0.52;0.52;;;7.90;99.90;;;;;;5010238;28;20041;-67
2022/12/24 06:41:56;;;;;;;0.10;0.10;;;7.90;99.90;;;;;;5009164;28;20129;-67
2022/12/24 06:44:22;;;;;;;0.10;0.10;;;7.90;99.90;;;;;;5010437;28;20046;-67
2022/12/24 06:46:48;;;;;;;1.58;1.08;;;7.90;99.90;;;;;;5001854;28;20054;-67
2022/12/24 06:49:13;;;;;;;0.22;0.22;;;7.90;99.90;;;;;;5024246;28;20044;-67
2022/12/24 06:51:39;;;;;;;0.10;0.10;;;7.90;99.90;;;;;;5027621;28;20033;-67
2022/12/24 06:54:06;;;;;;;0.10;0.10;;;7.80;99.90;;;;;;5028235;28;20524;-67
2022/12/24 06:56:31;;;;;;;1.88;0.80;;;7.80;99.90;;;;;;5029503;28;20033;-67
2022/12/24 06:58:57;;;;;;;3.40;2.38;;;7.70;99.90;;;;;;5029672;28;20184;-67
2022/12/24 07:01:23;;;;;;;1.13;1.10;;;7.70;99.90;;;;;;5029065;28;20509;-68
2022/12/24 07:03:49;;;;;;;11.20;2.55;;;7.60;99.90;;;;;;5029544;28;20049;-67
2022/12/24 07:06:25;;;;;;;2.15;1.88;;;7.60;99.90;;;;;;5029808;28;20176;-67
2022/12/24 07:08:51;;;;;;;1.55;1.45;;;7.60;99.90;;;;;;5027516;28;20037;-68
2022/12/24 07:11:17;;;;;;;3.15;1.17;;;7.60;99.90;;;;;;5030323;28;20046;-67
2022/12/24 07:13:42;;;;;;;0.10;0.10;;;7.50;99.90;;;;;;5030308;28;20080;-67
2022/12/24 07:16:08;;;;;;;0.10;0.10;;;7.50;99.90;;;;;;5028956;28;20057;-67
2022/12/24 07:18:34;;;;;;;0.10;0.10;;;7.50;99.90;;;;;;5028330;28;20076;-67
2022/12/24 07:21:02;;;;;;;0.10;0.10;;;7.50;99.90;;;;;;5029606;28;20054;-67
2022/12/24 07:23:30;;;;;;;0.10;0.10;;;7.50;99.90;;;;;;5024920;28;20076;-68
2022/12/24 07:25:59;;;;;;;0.10;0.10;;;7.40;99.90;;;;;;5024359;28;20054;-67
2022/12/24 07:28:25;;;;;;;1.38;0.93;;;7.40;99.90;;;;;;5023686;28;20119;-67
2022/12/24 07:30:50;;;;;;;0.90;0.85;;;7.40;99.90;;;;;;5028505;28;20042;-67
2022/12/24 07:33:16;;;;;;;0.10;0.10;;;7.30;99.90;;;;;;5028159;28;20065;-68
2022/12/24 07:35:41;;;;;;;0.10;0.10;;;7.30;99.90;;;;;;5025587;28;20100;-68
2022/12/24 07:38:07;;;;;;;0.10;0.10;;;7.30;99.90;;;;;;5028256;28;20034;-68
2022/12/24 07:40:33;;;;;;;0.10;0.10;;;7.30;99.90;;;;;;5025244;28;20493;-68
2022/12/24 07:42:59;;;;;;;0.10;0.10;;;7.30;99.90;;;;;;5022805;28;20041;-68
2022/12/24 07:45:25;;;;;;;0.65;0.65;;;7.30;99.90;;;;;;5018954;28;20405;-68
2022/12/24 07:47:50;;;;;;;0.10;0.10;;;7.30;99.90;;;;;;5027847;28;20045;-68
2022/12/24 07:50:16;;;;;;;0.30;0.30;;;7.30;99.90;;;;;;5042158;28;20092;-68
2022/12/24 07:52:41;;;;;;;0.25;0.25;;;7.30;99.90;;;;;;5026406;28;20129;-68
2022/12/24 07:55:07;;;;;;;0.13;0.13;;;7.20;99.90;;;;;;5026299;28;20120;-68
2022/12/24 07:57:33;;;;;;;0.10;0.10;;;7.30;99.90;;;;;;5028716;28;20444;-68
2022/12/24 07:59:59;;;;;;;0.00;0.00;;;7.20;99.90;;;;;;5027502;28;20049;-68
2022/12/24 08:02:24;;;;;;;0.10;0.10;;;7.30;99.90;;;;;;5022973;28;20041;-68
2022/12/24 08:04:50;;;;;;;0.10;0.10;;;7.30;99.90;;;;;;5027421;28;20474;-68
2022/12/24 08:07:15;;;;;;;1.65;0.95;;;7.30;99.90;;;;;;5026777;28;20045;-68
2022/12/24 08:09:41;;;;;;;0.00;0.00;;;7.30;99.90;;;;;;5029461;28;20129;-68
2022/12/24 08:12:07;;;;;;;0.40;0.40;;;7.30;99.90;;;;;;5028605;28;20044;-68
2022/12/24 08:14:32;;;;;;;0.10;0.10;;;7.30;99.90;;;;;;5027879;28;20080;-68
2022/12/24 08:16:58;;;;;;;0.10;0.10;;;7.40;99.90;;;;;;5029075;28;20057;-68
2022/12/24 08:19:23;;;;;;;0.10;0.10;;;7.40;99.90;;;;;;5026393;28;20397;-69
2022/12/24 08:21:49;;;;;;;24.38;3.30;;;7.50;99.90;;;;;;5027078;28;20098;-69
2022/12/24 08:24:15;;;;;;;0.82;0.70;;;7.50;99.90;;;;;;5027340;28;20082;-69
2022/12/24 08:26:40;;;;;;;0.30;0.30;;;7.60;99.90;;;;;;5021928;28;20404;-68
2022/12/24 08:29:07;;;;;;;0.90;0.85;;;7.60;99.90;;;;;;5020738;28;20515;-68
2022/12/24 08:31:35;;;;;;;0.45;0.45;;;7.70;99.90;;;;;;5016041;28;20037;-68
2022/12/24 08:34:05;;;;;;;0.10;0.10;;;7.70;99.90;;;;;;5024028;28;20053;-68
2022/12/24 08:36:32;;;;;;;0.57;0.57;;;7.80;99.90;;;;;;5026199;28;20398;-68
2022/12/24 08:38:58;;;;;;;0.98;0.88;;;7.80;99.90;;;;;;5027551;28;20056;-68
2022/12/24 08:41:24;;;;;;;0.43;0.43;;;7.80;99.90;;;;;;5024379;28;20045;-68
2022/12/24 08:43:49;;;;;;;0.47;0.47;;;7.90;99.90;;;;;;5025275;28;20053;-68
2022/12/24 08:46:15;;;;;;;0.45;0.45;;;7.90;99.90;;;;;;5027364;28;20038;-68
2022/12/24 08:48:40;;;;;;;3.40;1.65;;;8.00;99.90;;;;;;5022120;28;20092;-68
2022/12/24 08:51:08;;;;;;;0.75;0.75;;;8.10;99.90;;;;;;5015093;28;20104;-68
2022/12/24 08:53:33;;;;;;;1.23;1.13;;;8.10;99.90;;;;;;5017414;28;20049;-67
2022/12/24 08:56:07;;;;;;;0.30;0.30;;;8.20;99.90;;;;;;5025027;28;20038;-67
2022/12/24 08:58:33;;;;;;;0.50;0.50;;;8.30;99.90;;;;;;5020209;28;20132;-67
2022/12/24 09:00:59;;;;;;;0.50;0.50;;;8.30;99.90;;;;;;5023107;28;20132;-68
2022/12/24 09:03:25;;;;;;;0.00;0.00;;;8.40;99.90;;;;;;5026122;28;20076;-68
2022/12/24 09:05:52;;;;;;;0.50;0.50;;;8.40;99.90;;;;;;5023144;28;20144;-68
2022/12/24 09:08:19;;;;;;;0.10;0.10;;;8.40;99.90;;;;;;5027720;28;20481;-68
2022/12/24 09:10:44;;;;;;;0.17;0.17;;;8.50;99.90;;;;;;5042477;28;20056;-68
2022/12/24 09:13:10;;;;;;;0.10;0.10;;;8.60;99.90;;;;;;5028436;28;20038;-68
2022/12/24 09:15:36;;;;;;;34.80;2.58;;;8.70;99.90;;;;;;5026153;28;20521;-68
2022/12/24 09:18:01;;;;;;;0.47;0.35;;;8.70;99.90;;;;;;5026807;28;20124;-68
2022/12/24 09:20:27;;;;;;;2.97;2.13;;;8.70;99.90;;;;;;5024670;28;20053;-68
2022/12/24 09:22:52;;;;;;;0.10;0.10;;;8.70;99.90;;;;;;5027380;28;20477;-68
2022/12/24 09:25:18;;;;;;;0.10;0.10;;;8.80;99.90;;;;;;5028414;28;20107;-68
2022/12/24 09:27:44;;;;;;;1.10;1.10;;;8.80;99.90;;;;;;5025890;28;20082;-68
2022/12/24 09:30:10;;;;;;;3.15;1.15;;;8.80;99.90;;;;;;5024763;28;20053;-68
2022/12/24 09:32:35;;;;;;;0.10;0.10;;;8.90;99.90;;;;;;5027993;28;20404;-68
2022/12/24 09:35:01;;;;;;;0.20;0.20;;;8.90;99.90;;;;;;5026202;28;20041;-68
2022/12/24 09:37:27;;;;;;;0.63;0.63;;;8.90;99.90;;;;;;5027259;28;20116;-68
2022/12/24 09:39:52;;;;;;;0.08;0.08;;;8.90;99.90;;;;;;5040518;28;20112;-68
2022/12/24 09:42:50;;;;;;;0.10;0.10;;;8.90;99.90;;;;;;5026815;28;20033;-67
2022/12/24 09:45:30;;;;;;;0.10;0.10;;;8.90;99.90;;;;;;5027658;28;20054;-68
2022/12/24 09:48:04;;;;;;;0.93;0.90;;;9.00;99.90;;;;;;5011572;28;20053;-69
2022/12/24 09:50:40;;;;;;;0.73;0.73;;;9.00;99.90;;;;;;5004455;28;20062;-68
2022/12/24 09:53:44;;;;;;;0.77;0.77;;;9.10;99.90;;;;;;5007325;28;20233;-68
2022/12/24 09:56:19;;;;;;;1.05;0.52;;;9.10;99.90;;;;;;4985360;28;20066;-68
2022/12/24 09:58:49;;;;;;;0.10;0.10;;;9.20;99.90;;;;;;5003522;28;20046;-69
2022/12/24 10:01:16;;;;;;;0.63;0.63;;;9.20;99.90;;;;;;5011045;28;20073;-68
2022/12/24 10:03:42;;;;;;;2.60;1.65;;;9.20;99.90;;;;;;5011267;28;20050;-68
2022/12/24 10:06:26;;;;;;;0.05;0.05;;;9.20;99.90;;;;;;5010360;28;20046;-68
2022/12/24 10:09:06;;;;;;;4.70;2.08;;;9.20;99.90;;;;;;5011885;28;20482;-68
2022/12/24 10:11:52;;;;;;;0.10;0.10;;;9.20;99.90;;;;;;4993325;28;20552;-68
2022/12/24 10:14:54;;;;;;;0.55;0.55;;;9.20;99.90;;;;;;4991026;28;20050;-69
2022/12/24 10:17:55;;;;;;;0.00;0.00;;;9.30;99.90;;;;;;4988126;28;20056;-68
2022/12/24 10:20:42;;;;;;;0.38;0.38;;;9.30;99.90;;;;;;5004819;28;20593;-68
2022/12/24 10:23:27;;;;;;;1.35;1.35;;;9.30;99.90;;;;;;5005557;28;20034;-68
2022/12/24 10:26:12;;;;;;;0.60;0.57;;;9.40;99.90;;;;;;4985615;28;20133;-69
2022/12/24 10:28:52;;;;;;;0.40;0.40;;;9.40;99.90;;;;;;5011183;28;20045;-68
2022/12/24 10:31:29;;;;;;;1.88;1.08;;;9.40;99.90;;;;;;4992128;28;20042;-69
2022/12/24 10:34:02;;;;;;;0.10;0.10;;;9.50;99.90;;;;;;4988383;28;20172;-68
2022/12/24 10:36:29;;;;;;;0.20;0.20;;;9.50;99.90;;;;;;5004694;28;20637;-68
2022/12/24 10:38:55;;;;;;;2.05;0.65;;;9.50;99.90;;;;;;5010493;28;20041;-69
2022/12/24 10:41:22;;;;;;;0.20;0.20;;;9.50;99.90;;;;;;4992734;28;20096;-68
2022/12/24 10:43:48;;;;;;;0.80;0.80;;;9.50;99.90;;;;;;5010017;28;20052;-68
2022/12/24 10:46:20;;;;;;;0.45;0.40;;;9.50;99.90;;;;;;5010743;28;20378;-69
2022/12/24 10:49:03;;;;;;;1.70;1.10;;;9.50;99.90;;;;;;5030186;28;20088;-68
2022/12/24 10:52:01;;;;;;;0.05;0.05;;;9.50;99.90;;;;;;5028357;28;20478;-69
2022/12/24 10:54:28;;;;;;;0.10;0.10;;;9.50;99.90;;;;;;5021681;28;20049;-69
2022/12/24 10:56:59;;;;;;;0.20;0.20;;;9.50;99.90;;;;;;5030502;28;20124;-69
2022/12/24 10:59:42;;;;;;;1.77;1.45;;;9.50;99.90;;;;;;5024108;28;21452;-69
2022/12/24 11:02:25;;;;;;;0.10;0.10;;;9.50;99.90;;;;;;5023839;28;20057;-69
2022/12/24 11:04:51;;;;;;;9.35;0.70;;;9.60;99.90;;;;;;5027620;28;20493;-69
2022/12/24 11:07:22;;;;;;;2.42;2.22;;;9.50;99.90;;;;;;5015617;28;20045;-69
2022/12/24 11:09:59;;;;;;;0.10;0.10;;;9.60;99.90;;;;;;5022086;28;20515;-69
2022/12/24 11:12:38;;;;;;;0.55;0.55;;;9.60;99.90;;;;;;5029350;28;20569;-68
2022/12/24 11:15:21;;;;;;;0.68;0.68;;;9.60;99.90;;;;;;5025744;28;20037;-68
2022/12/24 11:17:58;;;;;;;2.70;2.45;;;9.60;99.90;;;;;;5029928;28;20046;-67
2022/12/24 11:20:28;;;;;;;0.10;0.10;;;9.60;99.90;;;;;;5028273;28;20132;-68
2022/12/24 11:22:55;;;;;;;4.45;1.65;;;9.60;99.90;;;;;;5028544;28;20068;-68
2022/12/24 11:25:22;;;;;;;0.10;0.10;;;9.70;99.90;;;;;;5027641;28;20037;-67
2022/12/24 11:27:50;;;;;;;2.10;1.95;;;9.60;99.90;;;;;;5025455;28;20048;-68
2022/12/24 11:30:15;;;;;;;0.40;0.40;;;9.70;99.90;;;;;;5026723;28;20079;-68
2022/12/24 11:32:42;;;;;;;0.00;0.00;;;9.60;99.90;;;;;;5029431;28;20440;-67
2022/12/24 11:35:20;;;;;;;0.20;0.20;;;9.70;99.90;;;;;;5029124;28;20041;-67
2022/12/24 11:37:47;;;;;;;4.40;1.83;;;9.70;99.90;;;;;;5027751;28;20038;-67
2022/12/24 11:40:21;;;;;;;1.05;1.05;;;9.70;99.90;;;;;;5025449;28;20045;-68
2022/12/24 11:42:51;;;;;;;0.00;0.00;;;9.70;99.90;;;;;;5024691;28;20049;-67
2022/12/24 11:45:24;;;;;;;2.70;2.50;;;9.70;99.90;;;;;;5029404;28;20046;-67
2022/12/24 11:47:52;;;;;;;0.32;0.32;;;9.70;99.90;;;;;;5029230;28;20053;-69
2022/12/24 11:50:35;;;;;;;0.10;0.10;;;9.70;99.90;;;;;;5027184;28;20041;-69
2022/12/24 11:53:20;;;;;;;0.10;0.10;;;9.70;99.90;;;;;;5028411;28;20033;-68
2022/12/24 11:55:55;;;;;;;0.30;0.30;;;9.70;99.90;;;;;;5029605;28;20045;-69
2022/12/24 11:58:36;;;;;;;0.10;0.10;;;9.70;99.90;;;;;;5028511;28;20045;-69
2022/12/24 12:01:21;;;;;;;0.10;0.10;;;9.70;99.90;;;;;;5024659;28;20087;-69
2022/12/24 12:03:54;;;;;;;0.47;0.47;;;9.70;99.90;;;;;;5021960;28;20034;-69
2022/12/24 12:06:41;;;;;;;0.50;0.50;;;9.70;99.90;;;;;;5023952;28;20104;-69
2022/12/24 12:09:15;;;;;;;0.00;0.00;;;9.70;99.90;;;;;;5011860;28;20080;-69
2022/12/24 12:11:43;;;;;;;0.40;0.40;;;9.70;99.90;;;;;;5023717;28;20053;-69
2022/12/24 12:14:23;;;;;;;2.33;2.13;;;9.70;99.90;;;;;;5009197;28;20406;-69
2022/12/24 12:17:02;;;;;;;1.90;1.77;;;9.60;99.90;;;;;;5027432;28;20049;-69
2022/12/24 12:19:57;;;;;;;0.10;0.10;;;9.70;99.90;;;;;;5023651;28;20436;-69
2022/12/24 12:22:48;;;;;;;0.00;0.00;;;9.70;99.90;;;;;;5022566;28;20069;-70
2022/12/24 12:25:23;;;;;;;1.40;1.30;;;9.60;99.90;;;;;;5011384;28;20041;-68
2022/12/24 12:27:52;;;;;;;1.38;1.27;;;9.70;99.90;;;;;;5026277;28;20049;-69
2022/12/24 12:30:21;;;;;;;0.10;0.10;;;9.60;99.90;;;;;;5022633;28;20049;-68
2022/12/24 12:33:15;;;;;;;18.42;1.65;;;9.60;99.90;;;;;;5026936;28;20481;-68
2022/12/24 12:35:42;;;;;;;0.03;0.03;;;9.70;99.90;;;;;;5026501;28;20056;-69
2022/12/24 12:38:12;;;;;;;0.10;0.10;;;9.60;99.90;;;;;;5027627;28;20069;-69
2022/12/24 12:41:06;;;;;;;0.10;0.10;;;9.60;99.90;;;;;;5026885;28;20091;-68
2022/12/24 12:43:41;;;;;;;0.73;0.73;;;9.60;99.90;;;;;;4998838;28;20061;-68
2022/12/24 12:46:57;;;;;;;0.10;0.10;;;9.60;99.90;;;;;;5027651;28;20045;-68
2022/12/24 12:49:29;;;;;;;0.20;0.20;;;9.60;99.90;;;;;;4992306;28;20149;-68
2022/12/24 12:52:35;;;;;;;0.00;0.00;;;9.60;99.90;;;;;;5027825;28;20041;-68
2022/12/24 12:55:10;;;;;;;0.10;0.10;;;9.60;99.90;;;;;;4976212;28;20046;-68
2022/12/24 12:57:37;;;;;;;8.38;0.75;;;9.50;99.90;;;;;;5026430;28;20053;-68
2022/12/24 13:00:14;;;;;;;1.30;1.20;;;9.50;99.90;;;;;;5026773;28;20062;-68
2022/12/24 13:03:09;;;;;;;0.10;0.10;;;9.60;99.90;;;;;;5024143;28;20056;-69
2022/12/24 13:05:50;;;;;;;0.15;0.15;;;9.60;99.90;;;;;;5022595;28;20075;-68
2022/12/24 13:08:36;;;;;;;0.45;0.30;;;9.60;99.90;;;;;;5022622;28;20049;-68
2022/12/24 13:11:20;;;;;;;0.10;0.10;;;9.60;99.90;;;;;;5028171;28;20083;-68
2022/12/24 13:14:16;;;;;;;0.10;0.10;;;9.50;99.90;;;;;;5026955;28;20128;-68
2022/12/24 13:16:47;;;;;;;0.10;0.10;;;9.70;99.90;;;;;;4972895;28;20168;-69
2022/12/24 13:19:41;;;;;;;0.10;0.10;;;9.90;99.90;;;;;;5008603;28;20490;-68
2022/12/24 13:22:20;;;;;;;0.38;0.38;;;10.10;99.90;;;;;;5024374;28;20053;-68